Time;durP1;ratioP1;P1;durP2;ratioP2;P2;SDS_P1;SDS_P2;PMS_P1;PMS_P2;Temp;Humidity;BMP_temperature;BMP_pressure;BME280_temperature;BME280_humidity;BME280_pressure;Samples;Min_cycle;Max_cycle;Signal;HPM_P1;HPM_P2
2022/08/28 00:01:53;;;;;;;6.57;5.10;;;17.60;99.90;;;;;;5108838;28;20535;-76
2022/08/28 00:04:19;;;;;;;11.07;5.73;;;17.50;99.90;;;;;;5103198;28;21089;-76
2022/08/28 00:06:46;;;;;;;7.17;5.50;;;17.50;99.90;;;;;;5092043;28;20716;-75
2022/08/28 00:09:13;;;;;;;11.10;5.87;;;17.50;99.90;;;;;;5095286;28;20423;-76
2022/08/28 00:11:41;;;;;;;7.70;5.20;;;17.60;99.90;;;;;;5092235;28;20468;-76
2022/08/28 00:14:10;;;;;;;8.80;4.87;;;17.60;99.90;;;;;;5095130;28;20417;-76
2022/08/28 00:16:37;;;;;;;10.27;5.80;;;17.60;99.90;;;;;;5102400;28;20523;-76
2022/08/28 00:19:04;;;;;;;10.90;5.90;;;17.60;99.90;;;;;;5095229;28;20450;-76
2022/08/28 00:21:31;;;;;;;8.53;4.80;;;17.60;99.90;;;;;;5094414;28;20429;-76
2022/08/28 00:23:58;;;;;;;7.53;5.40;;;17.60;99.90;;;;;;5090905;28;20487;-76
2022/08/28 00:29:11;;;;;;;7.87;5.10;;;17.60;99.90;;;;;;5102413;28;20920;-76
2022/08/28 00:31:38;;;;;;;12.23;5.97;;;17.70;99.90;;;;;;5104748;28;20498;-76
2022/08/28 00:34:05;;;;;;;11.93;5.20;;;17.60;99.90;;;;;;5107253;28;20438;-76
2022/08/28 00:36:32;;;;;;;6.00;4.83;;;17.70;99.90;;;;;;5088886;28;20459;-76
2022/08/28 00:38:59;;;;;;;9.00;5.13;;;17.70;99.90;;;;;;5091140;28;20583;-76
2022/08/28 00:41:26;;;;;;;9.90;5.43;;;17.60;99.90;;;;;;5096345;28;20550;-76
2022/08/28 00:44:07;;;;;;;9.83;6.37;;;17.70;99.90;;;;;;5095323;28;20847;-75
2022/08/28 00:46:37;;;;;;;7.10;4.87;;;17.70;99.90;;;;;;5094798;28;20409;-76
2022/08/28 00:49:03;;;;;;;19.00;5.90;;;17.70;99.90;;;;;;5091125;28;20448;-75
2022/08/28 00:54:15;;;;;;;11.07;5.50;;;17.70;99.90;;;;;;5099521;28;20538;-76
2022/08/28 00:56:43;;;;;;;6.83;6.13;;;17.70;99.90;;;;;;5099723;28;20929;-76
2022/08/28 00:59:14;;;;;;;9.40;5.07;;;17.70;99.90;;;;;;5094690;28;20457;-75
2022/08/28 01:01:44;;;;;;;7.10;5.03;;;17.70;99.90;;;;;;5090457;28;20961;-76
2022/08/28 01:04:15;;;;;;;12.10;6.00;;;17.60;99.90;;;;;;5097464;28;20429;-76
2022/08/28 01:06:44;;;;;;;8.90;5.40;;;17.70;99.90;;;;;;5099588;28;20539;-76
2022/08/28 01:09:11;;;;;;;6.27;5.13;;;17.70;99.90;;;;;;5100574;28;20912;-76
2022/08/28 01:11:41;;;;;;;8.03;4.90;;;17.70;99.90;;;;;;5098590;28;20503;-76
2022/08/28 01:14:08;;;;;;;8.90;5.20;;;17.70;99.90;;;;;;5097130;28;20426;-76
2022/08/28 01:16:36;;;;;;;5.87;5.27;;;17.70;99.90;;;;;;5096840;28;20795;-76
2022/08/28 01:19:09;;;;;;;7.20;4.90;;;17.70;99.90;;;;;;5094862;28;20461;-76
2022/08/28 01:21:46;;;;;;;6.67;5.00;;;17.70;99.90;;;;;;5100422;28;20470;-76
2022/08/28 01:24:17;;;;;;;8.00;4.90;;;17.70;99.90;;;;;;5098656;28;20442;-76
2022/08/28 01:26:44;;;;;;;11.37;5.40;;;17.80;99.90;;;;;;5095600;28;20435;-76
2022/08/28 01:29:12;;;;;;;8.67;5.47;;;17.80;99.90;;;;;;5097341;28;20425;-76
2022/08/28 01:31:40;;;;;;;7.80;4.80;;;17.80;99.90;;;;;;5096718;28;20458;-76
2022/08/28 01:34:08;;;;;;;5.67;5.17;;;17.80;99.90;;;;;;5097229;28;20985;-76
2022/08/28 01:36:35;;;;;;;5.30;4.70;;;17.80;99.90;;;;;;5101106;28;20507;-76
2022/08/28 01:39:07;;;;;;;7.03;5.10;;;17.80;99.90;;;;;;5092601;28;20458;-76
2022/08/28 01:41:38;;;;;;;10.63;4.60;;;17.80;99.90;;;;;;5087209;28;20833;-76
2022/08/28 01:44:05;;;;;;;12.73;5.60;;;17.80;99.90;;;;;;5092261;28;20426;-76
2022/08/28 01:46:32;;;;;;;7.27;5.00;;;17.80;99.90;;;;;;5099512;28;20425;-76
2022/08/28 01:48:59;;;;;;;9.40;4.90;;;17.80;99.90;;;;;;5090671;28;20439;-76
2022/08/28 01:51:26;;;;;;;7.57;4.70;;;17.80;99.90;;;;;;5093647;28;20463;-76
2022/08/28 01:53:53;;;;;;;9.30;5.77;;;17.80;99.90;;;;;;5102947;28;20429;-76
2022/08/28 01:56:20;;;;;;;13.00;5.30;;;17.80;99.90;;;;;;5090062;28;20451;-75
2022/08/28 01:58:48;;;;;;;13.83;5.60;;;17.70;99.90;;;;;;5089814;28;20454;-76
2022/08/28 02:01:17;;;;;;;10.10;5.40;;;17.70;99.90;;;;;;5090134;28;20479;-76
2022/08/28 02:03:45;;;;;;;11.07;5.30;;;17.80;99.90;;;;;;5090065;28;20497;-75
2022/08/28 02:06:13;;;;;;;13.50;5.20;;;17.80;99.90;;;;;;5096525;28;20486;-76
2022/08/28 02:08:39;;;;;;;12.00;5.20;;;17.80;99.90;;;;;;5103873;28;20831;-76
2022/08/28 02:11:07;;;;;;;12.47;5.50;;;17.80;99.90;;;;;;5100458;28;20426;-75
2022/08/28 02:13:35;;;;;;;9.43;4.67;;;17.80;99.90;;;;;;5104606;28;20481;-76
2022/08/28 02:16:04;;;;;;;6.83;5.10;;;17.70;99.90;;;;;;5092931;28;20459;-76
2022/08/28 02:18:31;;;;;;;7.90;5.17;;;17.70;99.90;;;;;;5096322;28;20479;-76
2022/08/28 02:20:58;;;;;;;9.37;5.70;;;17.70;99.90;;;;;;5089825;28;20440;-76
2022/08/28 02:23:24;;;;;;;11.90;5.80;;;17.70;99.90;;;;;;5101674;28;20461;-76
2022/08/28 02:25:51;;;;;;;6.90;5.00;;;17.70;99.90;;;;;;5095840;28;20509;-76
2022/08/28 02:28:18;;;;;;;8.50;5.60;;;17.70;99.90;;;;;;5098109;28;20491;-76
2022/08/28 02:30:45;;;;;;;6.27;5.10;;;17.70;99.90;;;;;;5099698;28;20453;-76
2022/08/28 02:33:13;;;;;;;14.23;5.33;;;17.70;99.90;;;;;;5099306;28;20438;-76
2022/08/28 02:35:41;;;;;;;11.90;4.53;;;17.60;99.90;;;;;;5098684;28;20429;-75
2022/08/28 02:38:08;;;;;;;7.33;5.00;;;17.60;99.90;;;;;;5098537;28;20480;-75
2022/08/28 02:40:36;;;;;;;9.77;5.70;;;17.60;99.90;;;;;;5094055;28;20434;-75
2022/08/28 02:43:03;;;;;;;9.40;5.70;;;17.60;99.90;;;;;;5092068;28;20474;-75
2022/08/28 02:45:30;;;;;;;16.77;5.93;;;17.60;99.90;;;;;;5101617;28;20443;-76
2022/08/28 02:47:57;;;;;;;9.37;5.60;;;17.60;99.90;;;;;;5099933;27;20447;-76
2022/08/28 02:50:25;;;;;;;12.00;5.60;;;17.60;99.90;;;;;;5093333;28;20987;-76
2022/08/28 02:52:52;;;;;;;12.33;6.00;;;17.50;99.90;;;;;;5093541;28;21018;-76
2022/08/28 02:55:20;;;;;;;12.40;4.67;;;17.50;99.90;;;;;;5098202;28;20505;-76
2022/08/28 02:57:47;;;;;;;8.93;5.70;;;17.50;99.90;;;;;;5104789;28;20451;-76
2022/08/28 03:00:18;;;;;;;10.30;5.00;;;17.60;99.90;;;;;;5102437;28;20528;-76
2022/08/28 03:02:45;;;;;;;8.50;4.80;;;17.50;99.90;;;;;;5101071;28;20812;-76
2022/08/28 03:05:14;;;;;;;9.10;5.70;;;17.50;99.90;;;;;;5102777;28;20468;-76
2022/08/28 03:07:42;;;;;;;7.63;5.13;;;17.50;99.90;;;;;;5105368;28;20425;-76
2022/08/28 03:10:10;;;;;;;12.50;4.53;;;17.50;99.90;;;;;;5102613;28;20973;-76
2022/08/28 03:12:37;;;;;;;5.63;4.77;;;17.50;99.90;;;;;;5103893;28;20466;-76
2022/08/28 03:15:06;;;;;;;7.50;4.90;;;17.50;99.90;;;;;;5100783;28;20421;-76
2022/08/28 03:17:33;;;;;;;11.97;5.30;;;17.50;99.90;;;;;;5105626;28;20426;-75
2022/08/28 03:20:00;;;;;;;5.30;4.80;;;17.50;99.90;;;;;;5102946;28;20498;-76
2022/08/28 03:25:10;;;;;;;5.53;4.70;;;17.50;99.90;;;;;;5100952;28;20402;-76
2022/08/28 03:27:37;;;;;;;12.13;4.60;;;17.50;99.90;;;;;;5097290;28;20426;-76
2022/08/28 03:30:05;;;;;;;11.57;5.20;;;17.50;99.90;;;;;;5103446;28;20413;-76
2022/08/28 03:32:32;;;;;;;9.30;4.90;;;17.50;99.90;;;;;;5089738;28;20478;-76
2022/08/28 03:34:59;;;;;;;9.20;5.13;;;17.50;99.90;;;;;;5102618;28;20421;-76
2022/08/28 03:37:26;;;;;;;9.00;5.20;;;17.50;99.90;;;;;;5092411;28;20441;-76
2022/08/28 03:39:52;;;;;;;8.50;4.60;;;17.40;99.90;;;;;;5095917;28;20488;-75
2022/08/28 03:42:20;;;;;;;7.57;4.47;;;17.40;99.90;;;;;;5100274;28;21142;-76
2022/08/28 03:44:47;;;;;;;8.93;5.33;;;17.40;99.90;;;;;;5100881;28;20505;-75
2022/08/28 03:47:14;;;;;;;11.07;5.27;;;17.40;99.90;;;;;;5091809;28;20430;-76
2022/08/28 03:49:41;;;;;;;5.70;4.03;;;17.30;99.90;;;;;;5092650;28;20451;-76
2022/08/28 03:52:07;;;;;;;14.57;5.40;;;17.30;99.90;;;;;;5093375;28;20483;-76
2022/08/28 03:54:34;;;;;;;8.70;4.03;;;17.30;99.90;;;;;;5101718;28;20455;-75
2022/08/28 03:57:01;;;;;;;10.50;5.00;;;17.30;99.90;;;;;;5093739;28;20451;-76
2022/08/28 03:59:29;;;;;;;10.30;4.73;;;17.30;99.90;;;;;;5103243;28;20486;-75
2022/08/28 04:01:55;;;;;;;10.63;4.50;;;17.30;99.90;;;;;;5100802;28;20513;-76
2022/08/28 04:04:22;;;;;;;7.10;4.70;;;17.30;99.90;;;;;;5093301;28;20418;-76
2022/08/28 04:06:49;;;;;;;9.00;4.33;;;17.30;99.90;;;;;;5096644;28;20429;-77
2022/08/28 04:09:15;;;;;;;8.33;4.27;;;17.30;99.90;;;;;;5103088;28;20794;-76
2022/08/28 04:11:42;;;;;;;10.40;4.47;;;17.30;99.90;;;;;;5105188;28;21201;-76
2022/08/28 04:14:09;;;;;;;12.07;4.40;;;17.20;99.90;;;;;;5104344;28;20429;-76
2022/08/28 04:16:38;;;;;;;9.63;4.70;;;17.20;99.90;;;;;;5097628;28;20429;-75
2022/08/28 04:19:04;;;;;;;5.60;4.00;;;17.20;99.90;;;;;;5094586;28;21090;-75
2022/08/28 04:21:31;;;;;;;10.27;4.70;;;17.20;99.90;;;;;;5108545;28;20417;-75
2022/08/28 04:23:58;;;;;;;6.57;4.50;;;17.20;99.90;;;;;;5098200;28;20459;-75
2022/08/28 04:26:26;;;;;;;16.00;4.83;;;17.20;99.90;;;;;;5095584;28;20470;-76
2022/08/28 04:28:54;;;;;;;11.27;4.80;;;17.20;99.90;;;;;;5099266;28;20455;-75
2022/08/28 04:31:21;;;;;;;8.80;4.50;;;17.20;99.90;;;;;;5090029;28;20426;-75
2022/08/28 04:33:49;;;;;;;9.43;4.40;;;17.20;99.90;;;;;;5099001;28;20433;-76
2022/08/28 04:36:17;;;;;;;12.40;5.57;;;17.20;99.90;;;;;;5090834;28;20475;-76
2022/08/28 04:38:44;;;;;;;16.50;4.97;;;17.20;99.90;;;;;;5091300;28;20479;-75
2022/08/28 04:41:14;;;;;;;6.97;4.10;;;17.20;99.90;;;;;;5092328;28;20501;-76
2022/08/28 04:43:41;;;;;;;4.90;3.40;;;17.20;99.90;;;;;;5094307;28;20494;-75
2022/08/28 04:46:10;;;;;;;12.00;4.23;;;17.20;99.90;;;;;;5093276;28;20451;-76
2022/08/28 04:48:37;;;;;;;14.23;4.67;;;17.20;99.90;;;;;;5091212;28;20475;-75
2022/08/28 04:51:08;;;;;;;10.57;5.00;;;17.30;99.90;;;;;;5094194;28;20462;-76
2022/08/28 04:53:35;;;;;;;10.93;4.03;;;17.30;99.90;;;;;;5090235;28;20810;-76
2022/08/28 04:56:04;;;;;;;9.70;3.60;;;17.20;99.90;;;;;;5100124;28;20444;-76
2022/08/28 04:58:32;;;;;;;13.60;3.80;;;17.20;99.90;;;;;;5095174;28;20499;-75
2022/08/28 05:00:59;;;;;;;8.40;3.93;;;17.20;99.90;;;;;;5093376;28;20479;-76
2022/08/28 05:03:26;;;;;;;9.57;3.70;;;17.20;99.90;;;;;;5092461;28;20870;-75
2022/08/28 05:05:53;;;;;;;11.73;3.67;;;17.20;99.90;;;;;;5090937;28;20475;-75
2022/08/28 05:08:27;;;;;;;8.87;3.80;;;17.20;99.90;;;;;;5100599;28;20426;-75
2022/08/28 05:10:53;;;;;;;8.00;3.60;;;17.30;99.90;;;;;;5104572;28;20516;-76
2022/08/28 05:13:21;;;;;;;9.10;4.17;;;17.30;99.90;;;;;;5103653;28;20475;-75
2022/08/28 05:15:49;;;;;;;8.40;4.73;;;17.30;99.90;;;;;;5098126;28;20471;-75
2022/08/28 05:18:19;;;;;;;5.83;3.90;;;17.30;99.90;;;;;;5103030;28;20934;-76
2022/08/28 05:20:47;;;;;;;9.77;3.60;;;17.30;99.90;;;;;;5104648;28;20496;-76
2022/08/28 05:23:15;;;;;;;6.87;3.67;;;17.30;99.90;;;;;;5103559;28;20465;-76
2022/08/28 05:25:46;;;;;;;7.13;3.53;;;17.40;99.90;;;;;;5104684;28;20466;-76
2022/08/28 05:28:15;;;;;;;18.27;3.93;;;17.40;99.90;;;;;;5097524;28;20466;-76
2022/08/28 05:30:43;;;;;;;9.80;3.40;;;17.40;99.90;;;;;;5097703;28;20450;-77
2022/08/28 05:33:13;;;;;;;6.10;3.40;;;17.40;99.90;;;;;;5093547;28;20438;-76
2022/08/28 05:35:43;;;;;;;10.00;3.27;;;17.40;99.90;;;;;;5094959;28;20423;-76
2022/08/28 05:38:11;;;;;;;5.70;3.40;;;17.40;99.90;;;;;;5102229;28;20450;-76
2022/08/28 05:40:43;;;;;;;7.17;3.33;;;17.40;99.90;;;;;;5101794;28;20537;-76
2022/08/28 05:43:10;;;;;;;9.73;4.07;;;17.40;99.90;;;;;;5092775;28;20513;-78
2022/08/28 05:45:37;;;;;;;7.47;3.53;;;17.50;99.90;;;;;;5094582;28;20478;-77
2022/08/28 05:48:05;;;;;;;11.70;3.77;;;17.50;99.90;;;;;;5097482;28;20430;-78
2022/08/28 05:50:32;;;;;;;4.93;3.37;;;17.50;99.90;;;;;;5090674;28;20422;-77
2022/08/28 05:53:00;;;;;;;8.10;3.37;;;17.60;99.90;;;;;;5099132;28;20479;-77
2022/08/28 05:55:26;;;;;;;10.30;4.13;;;17.60;99.90;;;;;;5091869;28;20468;-78
2022/08/28 05:58:27;;;;;;;14.37;4.27;;;17.60;99.90;;;;;;5098250;28;20478;-77
2022/08/28 06:00:41;;;;;;;5.90;3.87;;;17.60;99.90;;;;;;5093753;28;20460;-77
2022/08/28 06:03:08;;;;;;;9.50;4.23;;;17.70;99.90;;;;;;5097005;28;20475;-77
2022/08/28 06:05:35;;;;;;;9.07;3.30;;;17.70;99.90;;;;;;5101868;28;20564;-77
2022/08/28 06:08:02;;;;;;;10.77;4.20;;;17.80;99.90;;;;;;5107222;28;20451;-78
2022/08/28 06:10:28;;;;;;;15.23;3.53;;;17.80;99.90;;;;;;5103922;28;20497;-77
2022/08/28 06:12:56;;;;;;;10.43;3.87;;;17.80;99.90;;;;;;5099742;28;20478;-77
2022/08/28 06:15:24;;;;;;;10.50;3.43;;;17.80;99.90;;;;;;5101930;28;20469;-77
2022/08/28 06:17:50;;;;;;;5.77;3.10;;;17.90;99.90;;;;;;5102480;28;20426;-77
2022/08/28 06:20:18;;;;;;;7.53;3.33;;;18.00;99.90;;;;;;5101198;28;20503;-77
2022/08/28 06:22:44;;;;;;;13.47;3.80;;;18.10;99.90;;;;;;5105142;28;20466;-78
2022/08/28 06:25:13;;;;;;;8.07;3.27;;;18.20;99.90;;;;;;5114266;27;20469;-78
2022/08/28 06:27:39;;;;;;;8.63;3.53;;;18.40;99.90;;;;;;5108933;28;20804;-79
2022/08/28 06:30:09;;;;;;;11.20;3.63;;;18.80;99.90;;;;;;5101861;28;20446;-75
2022/08/28 06:32:36;;;;;;;5.53;2.57;;;19.50;99.90;;;;;;5111657;28;20470;-75
2022/08/28 06:35:03;;;;;;;10.37;3.93;;;20.10;99.90;;;;;;5090871;28;20451;-75
2022/08/28 06:37:29;;;;;;;7.33;2.90;;;20.60;99.90;;;;;;5113232;28;20458;-77
2022/08/28 06:39:56;;;;;;;6.67;2.80;;;21.10;99.90;;;;;;5106768;28;21075;-75
2022/08/28 06:42:24;;;;;;;4.70;2.50;;;21.40;99.90;;;;;;5094577;28;20499;-76
2022/08/28 06:44:50;;;;;;;9.77;3.30;;;21.60;99.90;;;;;;5102880;28;20461;-75
2022/08/28 06:47:18;;;;;;;10.27;3.30;;;21.90;99.90;;;;;;5111976;28;20934;-76
2022/08/28 06:49:45;;;;;;;6.03;3.27;;;22.10;99.90;;;;;;5113571;28;20458;-76
2022/08/28 06:52:11;;;;;;;11.23;3.07;;;22.10;99.90;;;;;;5100808;28;20516;-75
2022/08/28 06:54:38;;;;;;;8.37;3.80;;;22.20;99.90;;;;;;5095101;28;20443;-75
2022/08/28 06:57:05;;;;;;;12.97;3.80;;;22.10;99.90;;;;;;5100521;28;20983;-76
2022/08/28 06:59:32;;;;;;;9.80;3.13;;;22.10;99.90;;;;;;5101231;28;20512;-75
2022/08/28 07:01:58;;;;;;;6.70;2.70;;;22.20;99.90;;;;;;5096507;28;20463;-76
2022/08/28 07:04:27;;;;;;;7.67;3.13;;;22.30;99.90;;;;;;5102271;28;20533;-75
2022/08/28 07:06:53;;;;;;;7.37;2.87;;;22.30;99.90;;;;;;5103249;28;20515;-73
2022/08/28 07:09:20;;;;;;;8.40;3.67;;;22.30;99.90;;;;;;5102953;28;20451;-72
2022/08/28 07:11:46;;;;;;;8.33;3.23;;;22.10;99.90;;;;;;5100553;28;20582;-73
2022/08/28 07:14:13;;;;;;;9.47;2.90;;;22.20;99.90;;;;;;5102871;28;20454;-73
2022/08/28 07:16:40;;;;;;;11.00;3.63;;;22.20;99.90;;;;;;5098305;28;20454;-73
2022/08/28 07:19:09;;;;;;;9.13;2.97;;;22.10;99.90;;;;;;5099202;28;20446;-72
2022/08/28 07:21:40;;;;;;;6.70;3.23;;;22.10;99.90;;;;;;5103655;28;22023;-72
2022/08/28 07:24:08;;;;;;;9.33;3.40;;;22.00;99.90;;;;;;5088616;28;20966;-71
2022/08/28 07:26:35;;;;;;;7.17;3.27;;;22.00;99.90;;;;;;5089060;28;20962;-72
2022/08/28 07:29:03;;;;;;;4.53;3.13;;;21.90;99.90;;;;;;5102481;28;20450;-73
2022/08/28 07:31:29;;;;;;;7.00;3.70;;;21.90;99.90;;;;;;5111555;28;20534;-73
2022/08/28 07:33:56;;;;;;;14.57;3.37;;;22.00;99.90;;;;;;5104931;28;20508;-73
2022/08/28 07:36:25;;;;;;;8.20;3.43;;;22.30;99.90;;;;;;5102410;28;20443;-72
2022/08/28 07:38:54;;;;;;;9.20;3.60;;;22.30;99.90;;;;;;5109272;28;20829;-75
2022/08/28 07:41:23;;;;;;;9.73;4.13;;;22.30;99.90;;;;;;5094111;28;20475;-75
2022/08/28 07:46:38;;;;;;;7.73;3.50;;;22.30;99.90;;;;;;5092413;28;20446;-76
2022/08/28 07:49:06;;;;;;;6.80;3.27;;;22.50;99.90;;;;;;5097026;28;20570;-75
2022/08/28 07:51:33;;;;;;;9.40;3.57;;;22.50;99.90;;;;;;5089009;28;20513;-75
2022/08/28 07:54:02;;;;;;;6.53;3.53;;;22.60;99.90;;;;;;5093844;28;20459;-75
2022/08/28 07:56:30;;;;;;;10.37;3.60;;;22.60;99.90;;;;;;5093006;28;20947;-74
2022/08/28 07:58:57;;;;;;;6.40;3.40;;;22.60;99.90;;;;;;5097707;28;20451;-75
2022/08/28 08:01:24;;;;;;;12.83;3.07;;;22.60;99.90;;;;;;5107941;28;20478;-75
2022/08/28 08:03:51;;;;;;;9.80;3.60;;;22.90;99.90;;;;;;5099647;28;20516;-75
2022/08/28 08:06:18;;;;;;;11.80;3.27;;;22.90;99.90;;;;;;5096450;28;20486;-77
2022/08/28 08:08:46;;;;;;;7.47;3.40;;;23.00;99.90;;;;;;5102712;28;20452;-76
2022/08/28 08:11:17;;;;;;;10.97;3.67;;;23.00;99.90;;;;;;5104558;28;20446;-78
2022/08/28 08:13:46;;;;;;;8.80;3.60;;;23.40;99.90;;;;;;5093090;28;20820;-75
2022/08/28 08:16:16;;;;;;;7.13;4.03;;;23.70;99.90;;;;;;5102474;28;21015;-75
2022/08/28 08:18:43;;;;;;;11.90;3.60;;;23.80;99.90;;;;;;5091153;28;20482;-72
2022/08/28 08:21:12;;;;;;;10.53;3.53;;;24.10;99.90;;;;;;5094957;28;20987;-73
2022/08/28 08:23:40;;;;;;;10.90;3.37;;;24.10;99.90;;;;;;5095061;28;20464;-73
2022/08/28 08:26:09;;;;;;;14.57;3.53;;;24.00;99.90;;;;;;5091477;28;20451;-72
2022/08/28 08:28:39;;;;;;;7.57;3.17;;;24.20;99.90;;;;;;5090640;28;20505;-73
2022/08/28 08:31:08;;;;;;;7.97;3.27;;;24.30;99.90;;;;;;5090568;28;20452;-72
2022/08/28 08:33:37;;;;;;;10.17;3.60;;;24.30;99.90;;;;;;5096571;28;20470;-75
2022/08/28 08:36:04;;;;;;;9.60;4.40;;;24.40;99.90;;;;;;5088624;28;20452;-74
2022/08/28 08:38:32;;;;;;;8.17;3.90;;;24.70;99.90;;;;;;5089552;28;20864;-76
2022/08/28 08:41:00;;;;;;;8.40;3.07;;;25.00;99.90;;;;;;5089966;28;20553;-74
2022/08/28 08:43:31;;;;;;;11.10;3.50;;;25.30;99.90;;;;;;5093834;28;20875;-74
2022/08/28 08:45:59;;;;;;;5.83;2.83;;;25.40;99.90;;;;;;5088098;28;20447;-73
2022/08/28 08:48:29;;;;;;;13.40;3.60;;;25.50;99.90;;;;;;5095158;28;20467;-73
2022/08/28 08:51:01;;;;;;;8.03;3.83;;;25.30;99.90;;;;;;5089470;28;20489;-74
2022/08/28 08:53:34;;;;;;;16.60;6.33;;;25.50;99.90;;;;;;5093006;28;21043;-72
2022/08/28 08:56:04;;;;;;;11.57;3.17;;;25.80;99.90;;;;;;5094725;28;20452;-74
2022/08/28 08:58:35;;;;;;;19.27;4.00;;;25.70;99.90;;;;;;5099781;28;20500;-74
2022/08/28 09:01:09;;;;;;;10.40;3.60;;;25.50;99.90;;;;;;5090927;28;20848;-72
2022/08/28 09:03:49;;;;;;;7.97;3.60;;;25.30;99.90;;;;;;5109781;28;20476;-73
2022/08/28 09:06:24;;;;;;;8.40;3.80;;;25.50;99.90;;;;;;5109015;28;20447;-72
2022/08/28 09:08:56;;;;;;;7.43;3.30;;;25.40;99.90;;;;;;5105703;28;20499;-72
2022/08/28 09:11:38;;;;;;;8.03;3.10;;;25.60;99.90;;;;;;5107906;28;20465;-72
2022/08/28 09:14:11;;;;;;;14.50;3.67;;;25.90;99.90;;;;;;5102408;27;20452;-70
2022/08/28 09:16:42;;;;;;;11.40;3.40;;;26.10;99.90;;;;;;5095841;28;20903;-74
2022/08/28 09:19:11;;;;;;;12.00;2.90;;;26.10;99.90;;;;;;5102808;28;20452;-74
2022/08/28 09:21:40;;;;;;;6.40;3.10;;;26.10;99.90;;;;;;5105688;28;20536;-73
2022/08/28 09:24:15;;;;;;;9.07;3.77;;;26.30;99.90;;;;;;5094421;28;20451;-71
2022/08/28 09:26:42;;;;;;;6.90;3.03;;;26.30;99.90;;;;;;5098082;28;20455;-71
2022/08/28 09:29:17;;;;;;;10.27;3.27;;;25.90;99.90;;;;;;5105178;28;20455;-74
2022/08/28 09:31:46;;;;;;;12.07;3.33;;;25.90;99.90;;;;;;5109059;28;21179;-74
2022/08/28 09:34:31;;;;;;;11.93;3.53;;;25.90;99.90;;;;;;5105911;28;20829;-73
2022/08/28 09:36:59;;;;;;;7.67;3.30;;;26.00;99.90;;;;;;5102260;28;20459;-73
2022/08/28 09:39:28;;;;;;;6.53;3.23;;;26.00;99.90;;;;;;5097750;28;21088;-74
2022/08/28 09:45:00;;;;;;;16.63;3.73;;;26.50;99.90;;;;;;5071970;28;20540;-77
2022/08/28 09:47:36;;;;;;;7.53;3.40;;;26.70;99.90;;;;;;5101769;28;20453;-73
2022/08/28 09:50:18;;;;;;;11.30;3.70;;;26.70;99.90;;;;;;5090414;28;20450;-75
2022/08/28 09:52:45;;;;;;;18.63;4.60;;;26.50;99.90;;;;;;5100917;28;20462;-76
2022/08/28 09:55:20;;;;;;;11.10;4.03;;;26.70;99.90;;;;;;5088314;28;20486;-74
2022/08/28 09:57:47;;;;;;;10.60;4.43;;;26.80;99.90;;;;;;5089870;28;20450;-74
2022/08/28 10:00:14;;;;;;;7.60;4.13;;;26.90;99.90;;;;;;5090417;28;20496;-74
2022/08/28 10:02:48;;;;;;;13.30;3.73;;;26.60;99.90;;;;;;5090536;28;20479;-73
2022/08/28 10:05:18;;;;;;;13.47;3.63;;;26.10;99.90;;;;;;5095028;28;20447;-73
2022/08/28 10:07:51;;;;;;;8.53;3.37;;;25.90;99.90;;;;;;5087930;28;20460;-74
2022/08/28 10:10:30;;;;;;;6.50;3.33;;;26.00;99.90;;;;;;5089422;28;20455;-74
2022/08/28 10:13:05;;;;;;;5.80;3.43;;;26.40;99.90;;;;;;5090259;28;20475;-73
2022/08/28 10:15:42;;;;;;;6.97;3.20;;;26.60;99.90;;;;;;5098553;28;20533;-73
2022/08/28 10:18:28;;;;;;;8.63;3.10;;;26.70;99.90;;;;;;5092879;28;20455;-73
2022/08/28 10:21:09;;;;;;;9.00;3.10;;;26.40;99.90;;;;;;5091604;28;20909;-73
2022/08/28 10:23:48;;;;;;;7.33;2.87;;;26.20;99.90;;;;;;5109034;28;20474;-73
2022/08/28 10:26:28;;;;;;;11.53;3.63;;;26.40;99.90;;;;;;5092966;28;20448;-75
2022/08/28 10:29:10;;;;;;;8.33;3.30;;;26.90;99.90;;;;;;5093838;28;20541;-74
2022/08/28 10:31:46;;;;;;;7.90;3.20;;;27.10;99.90;;;;;;5096713;28;20463;-74
2022/08/28 10:34:35;;;;;;;11.57;3.50;;;27.20;99.90;;;;;;5096042;28;20453;-70
2022/08/28 10:37:09;;;;;;;9.23;3.23;;;27.20;99.90;;;;;;5090622;28;20454;-74
2022/08/28 10:39:48;;;;;;;6.70;3.80;;;27.20;99.90;;;;;;5102777;28;20446;-73
2022/08/28 10:42:19;;;;;;;6.37;3.60;;;27.30;99.90;;;;;;5100577;28;20478;-73
2022/08/28 10:44:53;;;;;;;8.90;3.87;;;27.40;99.00;;;;;;5093869;28;20560;-74
2022/08/28 10:47:22;;;;;;;7.93;3.87;;;27.40;98.30;;;;;;5095154;28;20441;-74
2022/08/28 10:49:53;;;;;;;9.93;3.60;;;27.20;99.00;;;;;;5100277;28;20455;-73
2022/08/28 10:52:24;;;;;;;12.93;4.00;;;27.30;99.00;;;;;;5093008;28;21069;-73
2022/08/28 10:54:54;;;;;;;10.40;4.40;;;27.20;99.10;;;;;;5087903;28;21014;-74
2022/08/28 10:57:31;;;;;;;7.97;3.77;;;27.20;98.60;;;;;;5087656;28;20448;-73
2022/08/28 11:00:05;;;;;;;8.33;4.80;;;27.40;96.60;;;;;;5088338;28;20453;-73
2022/08/28 11:02:32;;;;;;;10.90;4.40;;;27.70;93.60;;;;;;5088078;28;20489;-73
2022/08/28 11:05:01;;;;;;;13.83;4.90;;;27.90;93.40;;;;;;5086991;28;20447;-74
2022/08/28 11:07:34;;;;;;;6.60;4.20;;;27.90;93.60;;;;;;5087501;28;20969;-74
2022/08/28 11:10:20;;;;;;;9.43;4.50;;;27.90;93.20;;;;;;5091924;28;20455;-74
2022/08/28 11:12:50;;;;;;;7.83;4.07;;;27.90;93.00;;;;;;5091327;28;21053;-74
2022/08/28 11:15:52;;;;;;;11.00;4.30;;;28.00;92.60;;;;;;5099142;28;20807;-75
2022/08/28 11:18:51;;;;;;;5.90;4.03;;;28.30;92.20;;;;;;5097073;28;20453;-75
2022/08/28 11:21:25;;;;;;;9.30;4.83;;;28.50;91.80;;;;;;5095515;28;20990;-75
2022/08/28 11:23:59;;;;;;;12.33;4.10;;;28.50;93.70;;;;;;5103134;28;20463;-75
2022/08/28 11:26:33;;;;;;;7.47;4.43;;;28.60;94.10;;;;;;5099301;28;20528;-72
2022/08/28 11:29:02;;;;;;;8.27;3.90;;;28.70;93.20;;;;;;5099271;28;20959;-71
2022/08/28 11:31:36;;;;;;;8.67;4.00;;;28.80;92.10;;;;;;5096870;28;20454;-70
2022/08/28 11:34:04;;;;;;;8.80;4.00;;;28.50;90.30;;;;;;5097548;28;20476;-71
2022/08/28 11:36:58;;;;;;;11.63;4.07;;;27.90;91.20;;;;;;5100166;28;20465;-71
2022/08/28 11:39:25;;;;;;;9.90;3.80;;;27.90;91.30;;;;;;5107300;28;20449;-73
2022/08/28 11:42:30;;;;;;;9.63;3.93;;;27.90;91.20;;;;;;5100403;28;20530;-73
2022/08/28 11:44:57;;;;;;;10.30;4.03;;;27.90;91.50;;;;;;5092441;28;20469;-71
2022/08/28 11:47:47;;;;;;;9.93;4.13;;;27.70;92.40;;;;;;5096375;28;20447;-73
2022/08/28 11:50:25;;;;;;;10.13;4.67;;;27.40;91.80;;;;;;5097852;28;20509;-73
2022/08/28 11:53:29;;;;;;;10.23;4.20;;;27.40;91.80;;;;;;5102557;28;20467;-73
2022/08/28 11:56:28;;;;;;;8.87;4.07;;;27.70;92.10;;;;;;5098467;28;20455;-74
2022/08/28 11:59:04;;;;;;;6.47;4.40;;;27.70;91.10;;;;;;5084490;28;20812;-74
2022/08/28 12:01:34;;;;;;;7.33;4.50;;;27.50;91.00;;;;;;5103915;28;20482;-75
2022/08/28 12:04:04;;;;;;;7.50;4.70;;;27.50;91.60;;;;;;5100823;28;20458;-75
2022/08/28 12:06:53;;;;;;;11.57;4.50;;;27.70;91.60;;;;;;5102541;28;20873;-75
2022/08/28 12:09:43;;;;;;;7.17;4.27;;;28.00;91.70;;;;;;5076391;28;20449;-76
2022/08/28 12:12:52;;;;;;;7.60;4.60;;;28.40;90.90;;;;;;5093715;28;20468;-74
2022/08/28 12:15:41;;;;;;;7.37;4.40;;;28.60;91.10;;;;;;5096643;28;20524;-75
2022/08/28 12:18:16;;;;;;;9.30;5.00;;;29.00;90.90;;;;;;5098136;28;20456;-75
2022/08/28 12:21:02;;;;;;;12.00;4.70;;;29.20;89.80;;;;;;5098863;28;20461;-73
2022/08/28 12:23:39;;;;;;;8.63;4.60;;;29.30;90.40;;;;;;5098342;28;20517;-73
2022/08/28 12:26:09;;;;;;;6.73;4.60;;;29.40;89.00;;;;;;5094730;28;20451;-74
2022/08/28 12:28:44;;;;;;;11.67;4.90;;;29.30;90.20;;;;;;5102501;28;20446;-73
2022/08/28 12:34:31;;;;;;;7.60;4.30;;;29.30;88.30;;;;;;5091488;28;20820;-74
2022/08/28 12:37:00;;;;;;;9.37;5.37;;;29.20;86.50;;;;;;5095105;28;20919;-73
2022/08/28 12:39:28;;;;;;;7.50;4.30;;;28.80;84.80;;;;;;5107578;28;20451;-74
2022/08/28 12:41:55;;;;;;;7.87;4.63;;;28.50;88.10;;;;;;5091624;28;20525;-72
2022/08/28 12:44:26;;;;;;;8.77;4.90;;;28.50;86.20;;;;;;5088726;28;20470;-73
2022/08/28 12:46:53;;;;;;;7.70;4.80;;;28.40;86.30;;;;;;5090420;28;20521;-73
2022/08/28 12:49:30;;;;;;;10.47;5.00;;;28.40;86.70;;;;;;5101978;28;20443;-76
2022/08/28 12:52:12;;;;;;;10.63;4.33;;;28.60;87.60;;;;;;5092082;28;20530;-75
2022/08/28 12:54:39;;;;;;;10.27;4.23;;;28.90;86.10;;;;;;5088798;28;20959;-73
2022/08/28 12:57:07;;;;;;;9.20;5.27;;;29.00;86.90;;;;;;5101187;28;20475;-73
2022/08/28 12:59:37;;;;;;;10.27;4.73;;;29.10;85.20;;;;;;5097890;28;20545;-73
2022/08/28 13:02:07;;;;;;;8.33;5.70;;;29.10;85.40;;;;;;5106971;28;20491;-73
2022/08/28 13:04:36;;;;;;;6.97;4.30;;;29.10;85.10;;;;;;5092062;28;20508;-73
2022/08/28 13:07:08;;;;;;;9.50;4.80;;;29.00;85.50;;;;;;5092869;28;20511;-72
2022/08/28 13:09:35;;;;;;;7.50;4.40;;;29.10;85.20;;;;;;5093315;28;20454;-72
2022/08/28 13:12:02;;;;;;;8.93;4.60;;;29.10;85.20;;;;;;5107821;28;20466;-72
2022/08/28 13:14:44;;;;;;;11.60;4.90;;;28.90;84.20;;;;;;5085100;28;20508;-72
2022/08/28 13:17:13;;;;;;;6.00;4.00;;;29.00;86.40;;;;;;5091394;28;20451;-71